Time;durP1;ratioP1;P1;durP2;ratioP2;P2;SDS_P1;SDS_P2;PMS_P1;PMS_P2;Temp;Humidity;BMP_temperature;BMP_pressure;BME280_temperature;BME280_humidity;BME280_pressure;Samples;Min_cycle;Max_cycle;Signal;HPM_P1;HPM_P2
2021/12/05 00:41:32;;;;;;;9.03;1.67;;;5.20;93.60;;;;;;5045288;28;20969;-87
2021/12/05 00:46:47;;;;;;;6.97;1.87;;;5.20;94.10;;;;;;5019784;28;20458;-88
2021/12/05 00:49:35;;;;;;;10.57;2.03;;;5.30;93.70;;;;;;5023844;28;20428;-89
2021/12/05 00:58:38;;;;;;;4.97;1.80;;;5.30;93.40;;;;;;4990819;28;20424;-90
2021/12/05 01:01:13;;;;;;;8.73;2.47;;;5.30;93.30;;;;;;4999831;28;20454;-88
2021/12/05 01:09:02;;;;;;;11.90;2.37;;;5.30;93.50;;;;;;5012248;28;20434;-89
2021/12/05 01:16:43;;;;;;;8.97;5.00;;;5.30;93.50;;;;;;5009000;28;20453;-90
2021/12/05 01:19:14;;;;;;;12.23;3.50;;;5.30;93.40;;;;;;5002738;28;20838;-90
2021/12/05 01:21:49;;;;;;;12.97;4.93;;;5.30;93.40;;;;;;5017775;28;20445;-91
2021/12/05 01:24:52;;;;;;;15.30;6.70;;;5.30;93.40;;;;;;5007178;28;20538;-90
2021/12/05 01:33:12;;;;;;;11.47;3.53;;;5.10;93.50;;;;;;4970535;28;20463;-89
2021/12/05 01:38:28;;;;;;;11.10;4.13;;;5.10;93.50;;;;;;5013706;28;20453;-88
2021/12/05 01:41:17;;;;;;;9.40;4.13;;;5.00;93.50;;;;;;5028073;28;20440;-89
2021/12/05 01:52:32;;;;;;;8.43;4.13;;;4.80;94.10;;;;;;5030642;28;20441;-90
2021/12/05 02:09:17;;;;;;;8.30;2.37;;;5.10;93.90;;;;;;5037428;28;20448;-89
2021/12/05 02:39:41;;;;;;;10.23;1.67;;;5.30;92.70;;;;;;5024765;28;20460;-88
2021/12/05 02:42:08;;;;;;;7.80;1.90;;;5.30;92.60;;;;;;5028249;28;20809;-90
2021/12/05 02:44:35;;;;;;;7.87;1.70;;;5.30;92.60;;;;;;4995343;28;20423;-89
2021/12/05 02:47:14;;;;;;;7.63;1.97;;;5.20;92.40;;;;;;5014838;28;20464;-88
2021/12/05 02:49:45;;;;;;;3.67;1.57;;;5.20;92.40;;;;;;5003476;28;21012;-89
2021/12/05 02:52:29;;;;;;;5.47;1.50;;;5.10;92.50;;;;;;5012017;28;20573;-89
2021/12/05 02:55:09;;;;;;;7.53;1.90;;;5.10;92.30;;;;;;4989009;28;20411;-89
2021/12/05 03:00:19;;;;;;;8.03;2.53;;;5.00;92.60;;;;;;5018850;28;20434;-90
2021/12/05 03:02:48;;;;;;;7.80;2.17;;;4.90;92.70;;;;;;5000098;28;20427;-88
2021/12/05 03:05:19;;;;;;;5.47;1.83;;;4.90;92.70;;;;;;5022093;28;20422;-88
2021/12/05 03:07:47;;;;;;;7.13;2.10;;;4.90;92.70;;;;;;5015486;28;20500;-89
2021/12/05 03:10:17;;;;;;;13.30;1.77;;;4.90;92.80;;;;;;5008775;28;20468;-88
2021/12/05 03:12:45;;;;;;;9.17;3.53;;;4.90;92.80;;;;;;5033873;28;20418;-88
2021/12/05 03:15:18;;;;;;;4.70;1.80;;;4.90;92.50;;;;;;5037998;28;20430;-89
2021/12/05 03:17:47;;;;;;;7.60;1.63;;;4.90;92.30;;;;;;5039413;28;20424;-89
2021/12/05 03:20:17;;;;;;;10.63;1.50;;;4.90;92.20;;;;;;5022808;28;20441;-89
2021/12/05 03:22:43;;;;;;;5.63;1.80;;;4.90;92.20;;;;;;5022736;28;20460;-90
2021/12/05 03:25:11;;;;;;;7.17;1.57;;;4.90;92.10;;;;;;5038385;28;20422;-89
2021/12/05 03:27:39;;;;;;;7.33;1.50;;;4.80;92.20;;;;;;5013439;28;20477;-89
2021/12/05 03:30:07;;;;;;;8.00;1.57;;;4.80;92.00;;;;;;4991798;28;20415;-89
2021/12/05 03:32:36;;;;;;;12.80;1.80;;;4.80;91.80;;;;;;5001020;28;20434;-91
2021/12/05 03:35:03;;;;;;;6.60;1.53;;;4.70;91.80;;;;;;5025308;28;20457;-89
2021/12/05 03:37:29;;;;;;;12.20;1.90;;;4.70;91.90;;;;;;5025304;28;20421;-89
2021/12/05 03:40:02;;;;;;;13.43;3.07;;;4.70;92.00;;;;;;5031311;28;20416;-91
2021/12/05 03:42:31;;;;;;;7.00;2.03;;;4.60;92.00;;;;;;5020561;28;20454;-91
2021/12/05 03:44:59;;;;;;;3.13;1.70;;;4.60;92.10;;;;;;5021935;28;20430;-90
2021/12/05 03:47:29;;;;;;;5.27;1.57;;;4.60;92.20;;;;;;5005961;28;20466;-90
2021/12/05 03:49:56;;;;;;;8.70;3.40;;;4.60;92.30;;;;;;5026401;28;20448;-89
2021/12/05 03:52:23;;;;;;;15.63;2.50;;;4.60;92.40;;;;;;5024915;28;20430;-88
2021/12/05 03:54:49;;;;;;;10.40;2.07;;;4.60;92.30;;;;;;5008696;28;20422;-88
2021/12/05 03:57:15;;;;;;;8.43;2.20;;;4.60;92.30;;;;;;5011290;28;20456;-89
2021/12/05 03:59:44;;;;;;;8.57;1.80;;;4.50;92.30;;;;;;5006085;28;20453;-89
2021/12/05 04:02:11;;;;;;;5.80;1.60;;;4.50;92.30;;;;;;5021393;28;20952;-89
2021/12/05 04:04:40;;;;;;;4.50;1.70;;;4.50;92.30;;;;;;4999816;28;20901;-89
2021/12/05 04:07:08;;;;;;;6.90;1.50;;;4.50;92.30;;;;;;5009610;28;20450;-89
2021/12/05 04:09:35;;;;;;;2.87;1.40;;;4.50;92.30;;;;;;5024020;28;20421;-89
2021/12/05 04:12:03;;;;;;;23.53;2.53;;;4.50;92.40;;;;;;4989886;28;20542;-88
2021/12/05 04:14:41;;;;;;;12.80;1.60;;;4.50;92.30;;;;;;5024326;28;20412;-89
2021/12/05 04:17:10;;;;;;;8.77;1.90;;;4.60;92.10;;;;;;4985633;28;20446;-89
2021/12/05 04:19:40;;;;;;;11.80;1.77;;;4.50;91.90;;;;;;4991181;28;21262;-89
2021/12/05 04:22:09;;;;;;;16.27;2.00;;;4.50;91.70;;;;;;5009362;28;20437;-88
2021/12/05 04:24:37;;;;;;;2.67;1.50;;;4.50;91.50;;;;;;5022193;28;20425;-88
2021/12/05 04:27:04;;;;;;;7.97;2.20;;;4.40;91.50;;;;;;5004885;28;20449;-89
2021/12/05 04:29:32;;;;;;;7.43;1.30;;;4.40;91.50;;;;;;5004441;28;20450;-88
2021/12/05 04:31:58;;;;;;;10.27;2.10;;;4.40;91.60;;;;;;4986604;28;20430;-89
2021/12/05 04:34:26;;;;;;;8.90;1.70;;;4.30;91.70;;;;;;5006811;28;20429;-88
2021/12/05 04:36:56;;;;;;;13.73;1.60;;;4.30;91.60;;;;;;5000110;28;20422;-89
2021/12/05 04:39:25;;;;;;;5.50;1.87;;;4.30;91.50;;;;;;5004483;28;20430;-89
2021/12/05 04:41:53;;;;;;;2.80;1.00;;;4.30;91.60;;;;;;4985253;28;21204;-89
2021/12/05 04:44:21;;;;;;;3.83;1.50;;;4.20;91.60;;;;;;4984856;28;20457;-89
2021/12/05 04:46:48;;;;;;;5.93;1.80;;;4.20;91.70;;;;;;5002056;28;20449;-89
2021/12/05 04:49:15;;;;;;;7.07;1.50;;;4.10;91.70;;;;;;4988176;28;20440;-88
2021/12/05 04:51:44;;;;;;;4.27;1.70;;;4.10;91.70;;;;;;5012462;28;20440;-88
2021/12/05 04:54:16;;;;;;;6.70;1.60;;;4.10;91.80;;;;;;4990865;28;20444;-88
2021/12/05 04:56:42;;;;;;;8.57;1.10;;;4.10;91.80;;;;;;5034159;28;20427;-89
2021/12/05 04:59:15;;;;;;;2.60;1.30;;;4.00;91.70;;;;;;5037133;28;20473;-90
2021/12/05 05:01:48;;;;;;;5.80;1.43;;;4.00;91.70;;;;;;5019828;28;20503;-89
2021/12/05 05:04:25;;;;;;;5.63;1.10;;;4.00;91.70;;;;;;5017008;28;20441;-89
2021/12/05 05:06:55;;;;;;;7.77;1.50;;;4.00;91.80;;;;;;4993083;28;20464;-89
2021/12/05 05:09:21;;;;;;;2.13;1.10;;;3.90;91.80;;;;;;4993879;28;20425;-89
2021/12/05 05:11:47;;;;;;;2.90;0.70;;;3.90;91.90;;;;;;5021475;28;20433;-89
2021/12/05 05:14:14;;;;;;;9.40;1.60;;;3.90;91.90;;;;;;5024705;28;20429;-88
2021/12/05 05:16:41;;;;;;;3.87;1.40;;;3.90;91.90;;;;;;5005554;28;20510;-88
2021/12/05 05:19:11;;;;;;;6.17;1.37;;;3.90;91.90;;;;;;5025348;28;20433;-89
2021/12/05 05:27:31;;;;;;;3.80;1.27;;;3.90;92.00;;;;;;5020552;28;20469;-89
2021/12/05 05:40:58;;;;;;;3.67;1.60;;;3.70;92.10;;;;;;5024582;28;20422;-89
2021/12/05 05:48:48;;;;;;;5.10;1.50;;;3.70;92.10;;;;;;5013330;28;20521;-88
2021/12/05 05:51:22;;;;;;;5.03;1.00;;;3.60;92.10;;;;;;4988153;28;20542;-89
2021/12/05 05:53:51;;;;;;;4.70;1.33;;;3.60;92.20;;;;;;5002570;28;20429;-89
2021/12/05 05:56:26;;;;;;;8.70;1.70;;;3.60;92.30;;;;;;5010037;28;20425;-89
2021/12/05 05:58:58;;;;;;;8.40;1.20;;;3.60;92.40;;;;;;5029680;28;20406;-89
2021/12/05 06:04:49;;;;;;;5.10;1.50;;;3.70;92.60;;;;;;5020340;28;20442;-88
2021/12/05 06:07:16;;;;;;;3.47;1.40;;;3.70;92.30;;;;;;5001013;28;20513;-89
2021/12/05 06:13:13;;;;;;;;;;;;;;;;;;;;;
2021/12/05 06:16:18;;;;;;;5.60;1.60;;;3.80;91.80;;;;;;4986219;28;20509;-82
2021/12/05 06:20:27;;;;;;;7.60;1.80;;;3.80;91.80;;;;;;5005094;28;20476;-81
2021/12/05 06:23:01;;;;;;;6.63;1.67;;;3.70;91.80;;;;;;5010357;28;20446;-82
2021/12/05 06:26:04;;;;;;;3.50;1.47;;;3.70;91.90;;;;;;5023718;28;20440;-80
2021/12/05 06:37:47;;;;;;;7.17;1.87;;;3.50;92.20;;;;;;5036555;28;20508;-89
2021/12/05 06:48:45;;;;;;;;;;;;;;;;;;;;;
2021/12/05 06:59:30;;;;;;;6.87;1.70;;;3.50;92.50;;;;;;4987510;28;20410;-82
2021/12/05 07:15:53;;;;;;;8.67;2.10;;;3.40;92.90;;;;;;4841017;29;20593;-78
2021/12/05 07:18:48;;;;;;;3.40;1.30;;;3.40;92.90;;;;;;4873604;28;20428;-79
2021/12/05 07:21:55;;;;;;;4.20;1.70;;;3.40;93.00;;;;;;5000105;28;20418;-79
2021/12/05 07:25:04;;;;;;;4.70;2.33;;;3.40;93.10;;;;;;4990683;28;20534;-78
2021/12/05 07:42:27;;;;;;;3.33;1.40;;;3.90;93.00;;;;;;4998856;28;20454;-82
2021/12/05 07:44:55;;;;;;;4.97;2.00;;;3.90;92.70;;;;;;4995536;28;20417;-80
2021/12/05 07:47:24;;;;;;;4.83;2.40;;;4.00;92.60;;;;;;5017291;28;20504;-82
2021/12/05 07:49:52;;;;;;;3.57;1.47;;;4.10;92.30;;;;;;4995157;28;20433;-82
2021/12/05 07:52:22;;;;;;;3.37;1.40;;;4.20;92.10;;;;;;5006477;28;20509;-82
2021/12/05 07:54:55;;;;;;;5.43;2.50;;;4.20;91.90;;;;;;5015292;28;20441;-83
2021/12/05 07:57:28;;;;;;;3.03;1.87;;;4.30;91.80;;;;;;4996676;28;20421;-82
2021/12/05 08:00:09;;;;;;;3.20;1.53;;;4.30;91.60;;;;;;4997889;28;20406;-81
2021/12/05 08:16:24;;;;;;;2.50;1.07;;;4.50;91.10;;;;;;5007713;28;20440;-81
2021/12/05 08:18:50;;;;;;;2.83;1.60;;;4.50;91.10;;;;;;5010055;28;20461;-81
2021/12/05 08:21:16;;;;;;;4.20;1.37;;;4.60;91.00;;;;;;4982135;28;20422;-82
2021/12/05 08:23:41;;;;;;;7.67;1.90;;;4.60;91.00;;;;;;4982851;28;20198;-81
2021/12/05 08:26:12;;;;;;;5.63;1.50;;;4.60;90.90;;;;;;4983742;28;20661;-81
2021/12/05 08:31:38;;;;;;;7.33;2.03;;;4.70;90.60;;;;;;5009897;28;21005;-80
2021/12/05 08:37:04;;;;;;;3.00;1.23;;;4.70;90.70;;;;;;5004587;28;20582;-81
2021/12/05 08:45:14;;;;;;;3.23;1.80;;;4.80;90.70;;;;;;4982190;28;20442;-81
2021/12/05 09:26:10;;;;;;;7.00;1.20;;;5.00;90.50;;;;;;5004724;28;20445;-80
2021/12/05 09:38:27;;;;;;;3.73;1.83;;;5.10;90.40;;;;;;5013738;28;20426;-80
2021/12/05 09:53:32;;;;;;;4.83;1.80;;;5.40;90.60;;;;;;5022238;28;20457;-79
2021/12/05 10:07:25;;;;;;;2.10;1.40;;;5.60;90.60;;;;;;5000535;28;20819;-78
2021/12/05 10:10:09;;;;;;;3.00;1.80;;;5.70;90.40;;;;;;4995121;28;20431;-80
2021/12/05 10:35:38;;;;;;;3.80;1.17;;;6.20;89.80;;;;;;5002467;28;20873;-81
2021/12/05 10:38:16;;;;;;;2.63;1.30;;;6.20;89.30;;;;;;5020148;28;20876;-81
2021/12/05 10:41:06;;;;;;;5.00;1.53;;;6.10;88.90;;;;;;4990421;28;20430;-80
2021/12/05 10:43:36;;;;;;;3.17;0.97;;;6.10;89.40;;;;;;5001035;28;20442;-78
2021/12/05 10:46:16;;;;;;;4.67;1.20;;;6.20;89.00;;;;;;5016697;28;20474;-79
2021/12/05 10:49:03;;;;;;;3.80;1.53;;;6.20;88.30;;;;;;5005995;28;20258;-81
2021/12/05 10:51:52;;;;;;;7.60;1.37;;;6.30;88.00;;;;;;4985835;28;20414;-80
2021/12/05 10:54:24;;;;;;;3.00;1.10;;;6.40;88.30;;;;;;5003300;28;20450;-83
2021/12/05 10:57:13;;;;;;;3.10;1.50;;;6.50;88.70;;;;;;5016217;28;20434;-81
2021/12/05 10:59:53;;;;;;;4.23;1.20;;;6.60;88.30;;;;;;5017058;28;20439;-82
2021/12/05 11:02:24;;;;;;;3.50;1.83;;;6.70;88.30;;;;;;4974869;28;20925;-77
2021/12/05 11:04:50;;;;;;;3.97;1.60;;;6.70;86.80;;;;;;5007632;28;20695;-79
2021/12/05 11:07:21;;;;;;;3.60;1.77;;;6.60;86.30;;;;;;5008395;28;20473;-82
2021/12/05 11:09:49;;;;;;;5.67;1.30;;;6.60;88.30;;;;;;5010819;28;20418;-79
2021/12/05 11:12:19;;;;;;;5.10;2.20;;;6.60;87.50;;;;;;4999535;28;20441;-79
2021/12/05 11:14:54;;;;;;;2.43;1.80;;;6.60;87.90;;;;;;4984319;28;20509;-79
2021/12/05 11:17:22;;;;;;;2.60;1.43;;;6.60;88.10;;;;;;5009776;28;20429;-78
2021/12/05 11:20:11;;;;;;;2.23;1.23;;;6.60;86.70;;;;;;5014318;28;20418;-79
2021/12/05 11:22:49;;;;;;;3.40;1.73;;;6.60;87.20;;;;;;4986104;28;20562;-79
2021/12/05 11:25:27;;;;;;;1.90;1.40;;;6.60;86.80;;;;;;4998035;28;20438;-80
2021/12/05 11:27:59;;;;;;;3.83;1.63;;;6.60;86.70;;;;;;4965416;28;20466;-79
2021/12/05 11:30:31;;;;;;;2.80;1.40;;;6.60;87.10;;;;;;5009696;28;21048;-79
2021/12/05 11:33:00;;;;;;;5.73;2.17;;;6.70;86.60;;;;;;5005350;28;20861;-80
2021/12/05 11:35:30;;;;;;;4.00;1.57;;;6.70;87.50;;;;;;4989822;28;20423;-79
2021/12/05 11:38:30;;;;;;;3.30;1.50;;;6.80;86.90;;;;;;4998576;28;20430;-81
2021/12/05 11:41:05;;;;;;;4.13;1.43;;;6.90;85.80;;;;;;4991952;28;20430;-79
2021/12/05 11:43:36;;;;;;;4.90;1.80;;;6.90;84.40;;;;;;5003832;28;20464;-78
2021/12/05 11:46:10;;;;;;;2.60;1.30;;;6.90;84.90;;;;;;4999799;28;20498;-79
2021/12/05 11:48:55;;;;;;;4.53;1.57;;;6.90;84.90;;;;;;4984244;28;20454;-78
2021/12/05 11:51:23;;;;;;;4.20;2.10;;;6.80;83.90;;;;;;4999464;28;20514;-78
2021/12/05 11:54:14;;;;;;;2.70;1.20;;;6.80;84.90;;;;;;4994773;28;20480;-79
2021/12/05 11:56:45;;;;;;;3.07;1.40;;;6.70;84.30;;;;;;4987612;28;20431;-78
2021/12/05 11:59:19;;;;;;;4.03;1.47;;;6.70;85.10;;;;;;4995045;28;20422;-78
2021/12/05 12:01:57;;;;;;;4.80;1.40;;;6.70;85.30;;;;;;4994822;28;20922;-78
2021/12/05 12:04:36;;;;;;;5.43;1.70;;;6.70;85.30;;;;;;4996110;28;20413;-78
2021/12/05 12:07:27;;;;;;;2.30;1.40;;;6.70;84.60;;;;;;4977884;28;20490;-79
2021/12/05 12:10:03;;;;;;;1.90;1.40;;;6.70;84.60;;;;;;4996257;28;20407;-79
2021/12/05 12:12:29;;;;;;;5.30;1.70;;;6.60;84.60;;;;;;4995596;28;20434;-78
2021/12/05 12:14:55;;;;;;;2.10;1.03;;;6.60;85.30;;;;;;4998445;28;20406;-78
2021/12/05 12:17:21;;;;;;;1.80;1.30;;;6.70;85.20;;;;;;4996440;28;20164;-77
2021/12/05 12:19:50;;;;;;;2.60;1.57;;;6.70;84.80;;;;;;4999385;28;20167;-79
2021/12/05 12:22:20;;;;;;;2.80;1.10;;;6.70;84.80;;;;;;4996366;28;20446;-79
2021/12/05 12:24:50;;;;;;;1.67;1.10;;;6.70;85.00;;;;;;4993468;28;20834;-78
2021/12/05 12:27:17;;;;;;;3.13;1.07;;;6.80;84.90;;;;;;4995147;28;20456;-79
2021/12/05 12:29:44;;;;;;;2.33;1.23;;;6.80;84.80;;;;;;4979666;28;20411;-78
2021/12/05 12:32:15;;;;;;;3.77;1.47;;;6.80;84.90;;;;;;4979320;28;20821;-78
2021/12/05 12:34:42;;;;;;;3.77;1.20;;;6.80;84.60;;;;;;4996760;28;20415;-78
2021/12/05 12:37:10;;;;;;;2.27;1.43;;;6.80;84.30;;;;;;4994227;28;20419;-79
2021/12/05 12:39:48;;;;;;;3.20;2.10;;;6.80;83.70;;;;;;4976386;28;20455;-79
2021/12/05 12:42:15;;;;;;;4.10;1.30;;;6.80;84.70;;;;;;4976818;28;20411;-78
2021/12/05 12:45:11;;;;;;;2.43;1.10;;;6.90;84.10;;;;;;4994589;28;20407;-81
2021/12/05 12:47:56;;;;;;;2.63;1.50;;;6.90;83.90;;;;;;4973655;28;20502;-79
2021/12/05 12:50:56;;;;;;;4.70;1.80;;;6.90;83.30;;;;;;4996540;28;20419;-78
2021/12/05 12:53:26;;;;;;;2.90;1.10;;;6.90;83.00;;;;;;4997707;28;20458;-77
2021/12/05 12:56:01;;;;;;;2.93;1.70;;;6.90;83.00;;;;;;4999347;28;20407;-80
2021/12/05 12:58:50;;;;;;;3.17;1.33;;;7.00;82.70;;;;;;4998118;28;20438;-79
2021/12/05 13:02:16;;;;;;;3.87;1.43;;;7.00;80.90;;;;;;5011368;28;20518;-80
2021/12/05 13:10:30;;;;;;;2.43;1.27;;;7.00;80.50;;;;;;4997781;28;20421;-80
2021/12/05 13:13:00;;;;;;;3.93;1.30;;;7.00;80.60;;;;;;4997760;28;20434;-79
2021/12/05 13:15:37;;;;;;;3.80;1.30;;;7.00;80.60;;;;;;4997906;28;20433;-79
2021/12/05 13:18:13;;;;;;;2.30;1.17;;;7.10;80.40;;;;;;4997912;28;20469;-81
2021/12/05 13:20:42;;;;;;;4.63;1.57;;;7.10;80.50;;;;;;4996411;28;20418;-78
2021/12/05 13:23:14;;;;;;;3.30;1.50;;;7.10;80.70;;;;;;5010836;28;20423;-78
2021/12/05 13:26:01;;;;;;;2.80;1.50;;;7.10;80.00;;;;;;5011859;28;20502;-79
2021/12/05 13:28:55;;;;;;;4.37;1.60;;;7.10;79.60;;;;;;5001310;28;20466;-80
2021/12/05 13:31:27;;;;;;;3.73;1.47;;;7.10;80.00;;;;;;4988977;28;20505;-79
2021/12/05 13:34:24;;;;;;;4.63;2.20;;;7.10;79.30;;;;;;4999545;28;20952;-78
2021/12/05 13:36:56;;;;;;;2.20;1.43;;;7.10;79.40;;;;;;4999233;28;20418;-78
2021/12/05 13:39:47;;;;;;;2.40;1.40;;;7.10;78.50;;;;;;4999430;28;20414;-78
2021/12/05 13:42:41;;;;;;;8.00;1.90;;;7.10;79.30;;;;;;5014645;28;20430;-78
2021/12/05 13:45:21;;;;;;;3.60;1.93;;;7.20;78.90;;;;;;5000311;28;20939;-78
2021/12/05 13:47:47;;;;;;;9.50;1.47;;;7.20;77.10;;;;;;5007683;28;20462;-80
2021/12/05 13:50:19;;;;;;;4.00;1.57;;;7.30;77.30;;;;;;5022662;28;20429;-79
2021/12/05 13:53:12;;;;;;;2.00;1.27;;;7.30;75.80;;;;;;5023405;28;20250;-80
2021/12/05 13:56:02;;;;;;;3.10;1.77;;;7.20;76.40;;;;;;4986609;28;20430;-79
2021/12/05 13:58:32;;;;;;;7.50;2.43;;;7.20;75.50;;;;;;5002607;28;20442;-79
2021/12/05 14:01:21;;;;;;;4.77;1.90;;;7.20;76.20;;;;;;4981650;28;20797;-80
2021/12/05 14:03:58;;;;;;;4.30;2.47;;;7.10;75.50;;;;;;4997064;28;20423;-80
2021/12/05 14:07:04;;;;;;;4.23;1.63;;;7.10;73.90;;;;;;4997104;28;20490;-81
2021/12/05 14:09:46;;;;;;;6.40;2.83;;;7.10;73.80;;;;;;4995376;28;20422;-80
2021/12/05 14:12:18;;;;;;;4.20;1.77;;;7.00;74.50;;;;;;4998998;28;20552;-80
2021/12/05 14:14:49;;;;;;;3.63;1.53;;;7.00;75.10;;;;;;4979852;28;20466;-78
2021/12/05 14:17:28;;;;;;;2.70;1.60;;;7.00;75.80;;;;;;4998357;28;20406;-79
2021/12/05 14:19:58;;;;;;;1.97;1.00;;;7.10;76.00;;;;;;4980843;28;20831;-79
2021/12/05 14:22:26;;;;;;;2.07;1.50;;;7.00;76.00;;;;;;5013280;28;20454;-77
2021/12/05 14:24:55;;;;;;;6.37;1.47;;;7.00;76.00;;;;;;4979999;28;20469;-78
2021/12/05 14:27:33;;;;;;;2.37;1.70;;;7.00;75.90;;;;;;4997551;28;20445;-79
2021/12/05 14:30:01;;;;;;;2.73;1.17;;;7.00;76.00;;;;;;5011266;28;20421;-80
2021/12/05 14:32:39;;;;;;;7.00;1.80;;;7.00;76.30;;;;;;5001927;28;20438;-80
2021/12/05 14:35:09;;;;;;;5.17;1.50;;;7.00;76.50;;;;;;5009481;28;20741;-80
2021/12/05 14:37:36;;;;;;;1.57;0.80;;;6.90;76.50;;;;;;5001497;28;20419;-79
2021/12/05 14:40:13;;;;;;;1.97;1.20;;;6.90;76.70;;;;;;5014628;28;20430;-81
2021/12/05 14:42:42;;;;;;;4.07;1.23;;;6.90;76.70;;;;;;5020956;28;20418;-80
2021/12/05 14:45:12;;;;;;;3.47;1.63;;;6.90;76.80;;;;;;5020260;28;20406;-80
2021/12/05 14:47:41;;;;;;;3.73;1.10;;;6.90;77.70;;;;;;5020861;28;20513;-79
2021/12/05 14:50:30;;;;;;;2.63;1.30;;;6.90;76.60;;;;;;5024214;28;20529;-79
2021/12/05 14:52:58;;;;;;;5.43;1.40;;;6.90;76.40;;;;;;5023221;28;20445;-79
2021/12/05 14:55:27;;;;;;;1.30;0.73;;;6.80;76.80;;;;;;5021960;28;20417;-79
2021/12/05 14:57:58;;;;;;;1.77;1.23;;;6.80;77.10;;;;;;5025264;28;20416;-80
2021/12/05 15:01:15;;;;;;;2.47;1.37;;;6.80;77.40;;;;;;5021098;28;20438;-80
2021/12/05 15:04:07;;;;;;;2.60;1.60;;;6.80;77.30;;;;;;5001064;28;20441;-80
2021/12/05 15:06:39;;;;;;;1.83;0.87;;;6.70;77.40;;;;;;5018294;28;20424;-81
2021/12/05 15:09:15;;;;;;;3.40;1.30;;;6.70;77.40;;;;;;4997243;28;20502;-80
2021/12/05 15:11:49;;;;;;;4.30;2.67;;;6.70;77.40;;;;;;4983891;28;20411;-80
2021/12/05 15:14:17;;;;;;;3.70;1.77;;;6.70;77.40;;;;;;4967298;28;20419;-79
2021/12/05 15:17:12;;;;;;;4.00;2.33;;;6.70;77.60;;;;;;4966172;28;20912;-79
2021/12/05 15:19:41;;;;;;;3.43;2.00;;;6.70;77.60;;;;;;4981453;28;20415;-79
2021/12/05 15:22:12;;;;;;;3.43;1.83;;;6.70;77.90;;;;;;5003555;28;20403;-79
2021/12/05 15:24:39;;;;;;;6.83;3.17;;;6.70;78.10;;;;;;5006763;28;20435;-78
2021/12/05 15:27:24;;;;;;;13.80;6.80;;;6.70;78.30;;;;;;4991413;28;20482;-79
2021/12/05 15:29:54;;;;;;;38.37;18.77;;;6.70;78.40;;;;;;5010517;28;20437;-78
2021/12/05 15:32:29;;;;;;;33.87;14.77;;;6.70;78.20;;;;;;4996005;28;20488;-80
2021/12/05 15:35:00;;;;;;;26.93;14.03;;;6.70;78.30;;;;;;4992071;28;20861;-80
2021/12/05 15:37:35;;;;;;;20.70;8.83;;;6.70;78.40;;;;;;4984975;28;20426;-80
2021/12/05 15:45:11;;;;;;;7.93;3.77;;;6.70;78.50;;;;;;4897007;29;20449;-79
2021/12/05 15:47:46;;;;;;;5.63;1.60;;;6.60;78.60;;;;;;4892967;29;20469;-80
2021/12/05 15:50:42;;;;;;;4.87;1.60;;;6.70;78.50;;;;;;4924045;29;20488;-77
2021/12/05 15:53:11;;;;;;;3.67;1.80;;;6.60;78.40;;;;;;4920713;29;20445;-79
2021/12/05 15:55:50;;;;;;;5.43;1.40;;;6.60;78.60;;;;;;4937247;29;20414;-80
2021/12/05 15:58:30;;;;;;;4.50;2.13;;;6.50;78.70;;;;;;4933070;28;20423;-83
2021/12/05 16:01:15;;;;;;;4.90;3.00;;;6.50;78.90;;;;;;4999180;28;20406;-80
2021/12/05 16:04:03;;;;;;;3.63;2.27;;;6.50;79.30;;;;;;4964821;28;20435;-78
2021/12/05 16:06:40;;;;;;;3.10;1.67;;;6.50;79.60;;;;;;4978541;28;20517;-78
2021/12/05 16:09:16;;;;;;;2.90;2.13;;;6.50;79.90;;;;;;4995206;28;20537;-79
2021/12/05 16:11:42;;;;;;;2.90;2.10;;;6.50;80.20;;;;;;4961755;28;20430;-79
2021/12/05 16:14:26;;;;;;;3.73;1.67;;;6.50;80.40;;;;;;4964579;28;20438;-78
2021/12/05 16:16:51;;;;;;;2.10;1.33;;;6.50;80.70;;;;;;4982125;28;20558;-78
2021/12/05 16:19:17;;;;;;;4.87;2.00;;;6.40;81.10;;;;;;5009760;28;20435;-77
2021/12/05 16:21:43;;;;;;;3.20;2.10;;;6.40;81.40;;;;;;5012030;28;20176;-78
2021/12/05 16:24:14;;;;;;;6.83;2.00;;;6.40;81.90;;;;;;4983965;28;20202;-80
2021/12/05 16:27:10;;;;;;;3.30;2.47;;;6.40;82.60;;;;;;4983759;28;20180;-82
2021/12/05 16:29:38;;;;;;;4.90;2.93;;;6.30;83.10;;;;;;5017272;28;20465;-80
2021/12/05 16:32:27;;;;;;;5.17;2.33;;;6.30;83.30;;;;;;4968538;28;20430;-81
2021/12/05 16:35:30;;;;;;;9.57;2.87;;;6.30;83.90;;;;;;4965224;28;20999;-82
2021/12/05 16:45:43;;;;;;;14.93;4.27;;;6.30;84.60;;;;;;4975144;28;20430;-79
2021/12/05 16:48:18;;;;;;;5.00;2.73;;;6.30;85.10;;;;;;4982422;28;20548;-78
2021/12/05 16:52:06;;;;;;;5.90;3.70;;;6.30;85.30;;;;;;4991756;28;20434;-79
2021/12/05 16:59:03;;;;;;;9.07;3.50;;;6.30;86.70;;;;;;4947451;28;20570;-79
2021/12/05 17:01:53;;;;;;;3.63;2.20;;;6.30;87.10;;;;;;4952793;28;20435;-78
2021/12/05 17:04:48;;;;;;;4.30;2.70;;;6.30;87.20;;;;;;4992797;28;20430;-78
2021/12/05 17:08:07;;;;;;;7.47;3.83;;;6.30;87.70;;;;;;4982211;28;20473;-78
2021/12/05 17:15:10;;;;;;;4.13;2.43;;;6.30;88.60;;;;;;5017602;28;20456;-80
2021/12/05 17:17:44;;;;;;;3.93;1.60;;;6.30;88.80;;;;;;5003719;28;20407;-77
2021/12/05 17:36:17;;;;;;;2.13;1.60;;;6.30;88.10;;;;;;5022168;28;20425;-78
2021/12/05 17:38:51;;;;;;;3.90;2.17;;;6.30;87.40;;;;;;5039747;28;20497;-78
2021/12/05 17:41:27;;;;;;;6.10;3.83;;;6.20;87.50;;;;;;5037834;28;20433;-79
2021/12/05 17:44:53;;;;;;;6.10;2.90;;;6.30;87.70;;;;;;5042099;23;20900;-80
2021/12/05 17:47:41;;;;;;;9.83;2.60;;;6.30;87.30;;;;;;5026178;28;20453;-82
2021/12/05 17:53:58;;;;;;;4.87;3.07;;;6.30;87.20;;;;;;4976855;28;20450;-78
2021/12/05 17:56:49;;;;;;;6.30;3.10;;;6.30;86.80;;;;;;4979069;28;20415;-79
2021/12/05 18:03:04;;;;;;;6.20;2.20;;;6.20;86.50;;;;;;4921623;29;20433;-80
2021/12/05 18:05:35;;;;;;;3.83;2.40;;;6.20;86.50;;;;;;4957782;28;20415;-78
2021/12/05 18:08:07;;;;;;;6.63;3.20;;;6.20;86.40;;;;;;4975521;28;20503;-78
2021/12/05 18:10:36;;;;;;;7.77;3.37;;;6.20;86.50;;;;;;4985944;28;20441;-77
2021/12/05 18:13:21;;;;;;;6.77;3.57;;;6.20;86.40;;;;;;4996313;28;20522;-80
2021/12/05 18:15:59;;;;;;;5.07;2.10;;;6.20;86.40;;;;;;4998907;28;20434;-79
2021/12/05 18:18:33;;;;;;;5.80;2.77;;;6.20;86.40;;;;;;4995099;28;20913;-80
2021/12/05 18:21:00;;;;;;;8.80;2.17;;;6.20;86.60;;;;;;4998169;28;20454;-81
2021/12/05 18:23:28;;;;;;;4.13;2.30;;;6.20;86.60;;;;;;5021237;28;20449;-82
2021/12/05 18:25:58;;;;;;;4.37;1.77;;;6.20;86.60;;;;;;5021027;28;20460;-82
2021/12/05 18:31:48;;;;;;;5.40;2.00;;;6.10;86.30;;;;;;4998800;28;20426;-80
2021/12/05 18:34:29;;;;;;;4.10;2.33;;;6.10;86.20;;;;;;4998464;28;20477;-78
2021/12/05 18:41:14;;;;;;;6.70;1.80;;;6.10;86.30;;;;;;4955792;29;20934;-79
2021/12/05 18:43:50;;;;;;;6.40;2.03;;;6.00;86.30;;;;;;4941976;29;20453;-78
2021/12/05 18:46:25;;;;;;;3.57;1.93;;;6.00;86.50;;;;;;4957795;29;20440;-78
2021/12/05 18:49:20;;;;;;;4.97;2.07;;;6.00;86.80;;;;;;4956943;29;20528;-80
2021/12/05 18:52:14;;;;;;;4.30;2.40;;;5.90;87.00;;;;;;4994935;28;20406;-80
2021/12/05 18:55:03;;;;;;;7.20;1.97;;;5.90;87.50;;;;;;5020146;28;20489;-82
2021/12/05 19:04:30;;;;;;;7.70;2.80;;;5.90;88.10;;;;;;5019616;28;20433;-82
2021/12/05 19:07:23;;;;;;;5.20;2.50;;;5.80;88.10;;;;;;5003642;28;20453;-81
2021/12/05 19:12:58;;;;;;;4.70;2.20;;;5.80;88.60;;;;;;5021404;28;20422;-80
2021/12/05 19:15:51;;;;;;;3.30;1.77;;;5.80;88.80;;;;;;5019798;28;20418;-81
2021/12/05 19:18:35;;;;;;;4.23;2.53;;;5.80;89.10;;;;;;5004900;28;20945;-79
2021/12/05 19:21:30;;;;;;;4.73;3.60;;;5.80;89.30;;;;;;5005040;28;20441;-81
2021/12/05 19:24:25;;;;;;;9.70;3.03;;;5.80;89.40;;;;;;5016019;28;20458;-79
2021/12/05 19:27:21;;;;;;;;;;;;;;;;;;;;;
2021/12/05 19:30:12;;;;;;;7.00;2.20;;;5.70;89.80;;;;;;5017492;28;20425;-76
2021/12/05 19:32:38;;;;;;;4.53;2.67;;;5.60;89.90;;;;;;5015842;28;20438;-76
2021/12/05 19:35:04;;;;;;;3.47;2.40;;;5.60;90.10;;;;;;5017232;28;20574;-80
2021/12/05 19:37:31;;;;;;;4.47;2.50;;;5.60;90.20;;;;;;5038135;22;20500;-79
2021/12/05 19:39:57;;;;;;;4.67;2.50;;;5.50;90.30;;;;;;5044785;28;20417;-78
2021/12/05 19:42:25;;;;;;;4.70;3.10;;;5.50;90.50;;;;;;5026693;28;20421;-79
2021/12/05 19:44:53;;;;;;;13.77;7.93;;;5.50;90.60;;;;;;5024812;28;20668;-82
2021/12/05 19:47:19;;;;;;;9.50;3.10;;;5.50;90.70;;;;;;5029545;28;20492;-79
2021/12/05 19:49:44;;;;;;;3.37;2.40;;;5.50;90.80;;;;;;5044177;28;20428;-80
2021/12/05 19:52:11;;;;;;;7.40;3.40;;;5.50;90.90;;;;;;5044007;28;20178;-80
2021/12/05 19:54:38;;;;;;;4.97;3.20;;;5.50;90.90;;;;;;5026510;28;20182;-80
2021/12/05 19:57:04;;;;;;;11.43;4.77;;;5.50;91.00;;;;;;5046400;28;20507;-78
2021/12/05 19:59:30;;;;;;;8.83;4.50;;;5.40;91.00;;;;;;5044021;28;20174;-77
2021/12/05 20:01:56;;;;;;;6.60;3.60;;;5.50;91.10;;;;;;5024307;28;20476;-77
2021/12/05 20:04:21;;;;;;;7.70;3.43;;;5.50;91.20;;;;;;5040544;28;20205;-78
2021/12/05 20:06:51;;;;;;;6.20;2.70;;;5.50;91.30;;;;;;5026635;28;20212;-78
2021/12/05 20:09:19;;;;;;;6.83;4.30;;;5.50;91.30;;;;;;5042207;28;20189;-78
2021/12/05 20:11:48;;;;;;;5.70;3.80;;;5.50;91.20;;;;;;5040807;28;20452;-80
2021/12/05 20:14:17;;;;;;;5.40;3.40;;;5.60;91.30;;;;;;5028667;28;20426;-79
2021/12/05 20:16:43;;;;;;;5.43;3.73;;;5.60;91.30;;;;;;5003228;28;20449;-77
2021/12/05 20:19:09;;;;;;;6.80;3.23;;;5.60;91.20;;;;;;5020518;28;20410;-79